createdAt,value
2023-03-23T12:02:45.776Z,41.5
2023-03-23T12:07:51.684Z,41
2023-03-23T12:12:57.790Z,43
2023-03-23T12:18:03.961Z,42
2023-03-23T12:23:10.063Z,40
2023-03-23T12:28:17.362Z,40.5
2023-03-23T12:33:22.392Z,43
2023-03-23T12:38:28.526Z,42.5
2023-03-23T12:43:34.915Z,43
2023-03-23T12:48:40.982Z,42
2023-03-23T12:53:46.933Z,43.5
2023-03-23T12:58:53.802Z,44
2023-03-23T13:04:00.384Z,45.5
2023-03-23T13:09:05.652Z,43.5
2023-03-23T13:14:11.516Z,43
2023-03-23T13:19:17.722Z,43.5
2023-03-23T13:24:23.842Z,42
2023-03-23T13:29:29.990Z,42
2023-03-23T13:34:36.111Z,42.5
2023-03-23T13:39:43.250Z,42.5
2023-03-23T13:44:48.416Z,42
2023-03-23T13:49:54.509Z,45.5
2023-03-23T13:55:00.683Z,45
2023-03-23T14:00:06.832Z,42.5
2023-03-23T14:05:13.097Z,44.5
2023-03-23T14:10:19.070Z,46
2023-03-23T14:15:25.229Z,47
2023-03-23T14:20:31.385Z,45.5
2023-03-23T14:25:37.476Z,45.5
2023-03-23T14:30:43.753Z,46.5
2023-03-23T14:35:49.830Z,50
2023-03-23T14:40:55.922Z,51.5
2023-03-23T14:46:02.043Z,50.5
2023-03-23T14:51:08.156Z,51.5
2023-03-23T14:56:14.392Z,55
2023-03-23T15:01:20.619Z,60
2023-03-23T15:06:26.613Z,57
2023-03-23T15:11:32.761Z,54.5
2023-03-23T15:16:38.884Z,56
2023-03-23T15:21:45.048Z,53.5
2023-03-23T15:26:51.208Z,54.5
2023-03-23T15:31:58.333Z,53
2023-03-23T15:37:08.985Z,52.5
2023-03-23T15:42:09.605Z,53.5
2023-03-23T15:47:15.772Z,53.5
2023-03-23T15:52:22.046Z,55.5
2023-03-23T15:57:28.050Z,54.5
2023-03-23T16:02:34.300Z,58
2023-03-23T16:07:40.342Z,59.5
2023-03-23T16:12:46.500Z,60
2023-03-23T16:17:52.766Z,62
2023-03-23T16:28:04.884Z,66.5
2023-03-23T16:33:11.096Z,66
2023-03-23T16:38:17.132Z,67
2023-03-23T16:43:23.316Z,69.5
2023-03-23T16:48:29.387Z,72
2023-03-23T16:53:35.585Z,74
2023-03-23T16:58:41.779Z,74.5
2023-03-23T17:03:48.013Z,75
2023-03-23T17:08:53.967Z,72.5
2023-03-23T17:14:00.239Z,75.5
2023-03-23T17:19:06.257Z,76.5
2023-03-23T17:24:12.424Z,76.5
2023-03-23T17:29:18.583Z,74.5
2023-03-23T17:34:24.694Z,77
2023-03-23T17:39:31.140Z,78.5
2023-03-23T17:44:37.194Z,79
2023-03-23T17:49:43.169Z,78.5
2023-03-23T17:54:49.248Z,79
2023-03-23T17:59:55.356Z,80
2023-03-23T18:05:01.497Z,79.5
2023-03-23T18:10:07.710Z,77
2023-03-23T18:15:13.964Z,78
2023-03-23T18:20:19.940Z,77.5
2023-03-23T18:25:26.144Z,77.5
2023-03-23T18:30:32.258Z,78
2023-03-23T18:35:38.377Z,77.5
2023-03-23T18:40:44.525Z,75.5
2023-03-23T18:45:50.659Z,75
2023-03-23T18:50:56.804Z,75
2023-03-23T18:56:02.949Z,74.5
2023-03-23T19:01:09.107Z,74.5
2023-03-23T19:06:15.224Z,74.5
2023-03-23T19:11:21.461Z,75.5
2023-03-23T19:16:27.665Z,75.5
2023-03-23T19:21:34.082Z,75
2023-03-23T19:26:39.807Z,74.5
2023-03-23T19:31:46.464Z,75.5
2023-03-23T19:36:56.163Z,75.5
2023-03-23T19:41:58.194Z,77.5
2023-03-23T19:47:04.386Z,77
2023-03-23T19:52:12.364Z,77
2023-03-23T19:57:16.666Z,77
2023-03-23T20:02:22.947Z,76.5
2023-03-23T20:07:28.997Z,75
2023-03-23T20:12:35.452Z,75
2023-03-23T20:17:41.220Z,75.5
2023-03-23T20:22:48.097Z,76
2023-03-23T20:27:54.987Z,76.5
2023-03-23T20:32:59.671Z,76.5
2023-03-23T20:38:05.711Z,77
2023-03-23T20:43:11.885Z,76.5
2023-03-23T20:48:18.004Z,78
2023-03-23T20:53:24.156Z,78
2023-03-23T20:58:30.289Z,78.5
2023-03-23T21:03:37.446Z,78
2023-03-23T21:08:42.591Z,75
2023-03-23T21:13:48.730Z,75
2023-03-23T21:19:36.406Z,73.5
2023-03-23T21:24:01.054Z,75
2023-03-23T21:29:07.170Z,76.5
2023-03-23T21:34:13.252Z,76.5
2023-03-23T21:39:20.121Z,74.5
2023-03-23T21:44:25.549Z,75.5
2023-03-23T21:49:31.790Z,76
2023-03-23T21:54:37.807Z,75.5
2023-03-23T21:59:44.092Z,76
2023-03-23T22:04:50.113Z,74
2023-03-23T22:09:56.249Z,75
2023-03-23T22:15:02.423Z,75
2023-03-23T22:20:08.580Z,73.5
2023-03-23T22:25:14.676Z,73
2023-03-23T22:30:20.789Z,72
2023-03-23T22:35:26.957Z,72.5
2023-03-23T22:40:33.106Z,74.5
2023-03-23T22:45:39.267Z,76
2023-03-23T22:50:45.464Z,77
2023-03-23T22:55:51.513Z,79
2023-03-23T23:00:57.694Z,82
2023-03-23T23:06:03.801Z,83.5
2023-03-23T23:11:09.946Z,83.5
2023-03-23T23:16:16.156Z,82.5
2023-03-23T23:21:22.213Z,84
2023-03-23T23:26:28.409Z,84.5
2023-03-23T23:31:34.611Z,83.5
2023-03-23T23:36:40.832Z,83.5
2023-03-23T23:41:46.801Z,83
2023-03-23T23:46:52.938Z,83
2023-03-23T23:51:59.071Z,83
2023-03-23T23:57:05.310Z,84
